| Date | Time | Temp. (oF) | Dew Point (oF) | Rel. Hum. (%) | Press. (in.) | Wind Dir. | Wind Speed (mph) | Hourly Rainfall (in.) |
|
|---|---|---|---|---|---|---|---|---|---|
| 1 | 03/28 | 00:00 | 46 | 41 | 83 | 29.87 | NNE | 3 | 0.00 |
| 2 | 03/27 | 23:00 | 47 | 41 | 80 | 29.89 | ENE | 2 | 0.00 |
| 3 | 03/27 | 22:00 | 47 | 40 | 79 | 29.91 | ESE | 4 | 0.00 |
| 4 | 03/27 | 21:00 | 48 | 41 | 77 | 29.93 | ESE | 2 | 0.00 |
| 5 | 03/27 | 20:00 | 48 | 41 | 77 | 29.92 | E | 4 | 0.00 |
| 6 | 03/27 | 19:00 | 49 | 40 | 73 | 29.93 | ESE | 4 | 0.00 |
| 7 | 03/27 | 18:00 | 50 | 41 | 72 | 29.94 | ESE | 4 | 0.00 |
| 8 | 03/27 | 17:00 | 50 | 41 | 73 | 29.96 | E | 5 | 0.00 |
| 9 | 03/27 | 16:00 | 51 | 44 | 77 | 29.97 | NNE | 1 | 0.00 |
| 10 | 03/27 | 15:00 | 49 | 43 | 80 | 29.99 | ENE | 4 | 0.00 |
| 11 | 03/27 | 14:00 | 50 | 40 | 71 | 30.01 | ESE | 1 | 0.00 |
| 12 | 03/27 | 13:00 | 51 | 41 | 69 | 30.00 | SE | 5 | 0.00 |
| 13 | 03/27 | 12:00 | 47 | 41 | 82 | 30.05 | NE | 5 | 0.01 |
| 14 | 03/27 | 11:00 | 45 | 38 | 79 | 30.09 | ENE | 3 | 0.00 |
| 15 | 03/27 | 10:00 | 43 | 38 | 85 | 30.08 | ESE | 0 | 0.00 |
| 16 | 03/27 | 09:00 | 41 | 38 | 92 | 30.07 | ENE | 2 | 0.00 |
| 17 | 03/27 | 08:00 | 38 | 35 | 90 | 30.07 | NE | 1 | 0.00 |
| 18 | 03/27 | 07:00 | 38 | 35 | 89 | 30.06 | N | 1 | 0.00 |
| 19 | 03/27 | 06:00 | 37 | 34 | 90 | 30.06 | SSW | 0 | 0.00 |
| 20 | 03/27 | 05:00 | 37 | 34 | 90 | 30.05 | SSW | 0 | 0.00 |
| 21 | 03/27 | 04:00 | 36 | 33 | 89 | 30.05 | SSW | 0 | 0.00 |
| 22 | 03/27 | 03:00 | 36 | 32 | 87 | 30.05 | NNE | 0 | 0.00 |
| 23 | 03/27 | 02:00 | 38 | 32 | 80 | 30.06 | SSW | 0 | 0.00 |
| 24 | 03/27 | 01:00 | 39 | 33 | 79 | 30.06 | SSW | 0 | 0.00 |